createdAt,value
2018-10-19T00:01:47.392Z,11.49
2018-10-19T00:04:15.806Z,11.51
2018-10-19T00:06:44.104Z,11.47
2018-10-19T00:09:12.926Z,11.45
2018-10-19T00:11:41.239Z,11.42
2018-10-19T00:14:09.542Z,11.42
2018-10-19T00:16:37.901Z,11.45
2018-10-19T00:19:06.598Z,11.46
2018-10-19T00:21:34.986Z,11.42
2018-10-19T00:24:03.502Z,11.40
2018-10-19T00:26:32.084Z,11.38
2018-10-19T00:29:00.461Z,11.30
2018-10-19T00:31:28.863Z,11.30
2018-10-19T00:33:57.172Z,11.31
2018-10-19T00:36:25.587Z,11.28
2018-10-19T00:38:53.954Z,11.28
2018-10-19T00:41:22.307Z,11.25
2018-10-19T00:43:50.701Z,11.25
2018-10-19T00:46:19.016Z,11.19
2018-10-19T00:48:47.270Z,11.15
2018-10-19T00:51:15.704Z,11.12
2018-10-19T00:53:44.013Z,11.13
2018-10-19T00:56:12.284Z,11.03
2018-10-19T00:58:40.569Z,10.99
2018-10-19T01:01:08.881Z,11.03
2018-10-19T01:03:37.370Z,10.99
2018-10-19T01:06:05.804Z,10.97
2018-10-19T01:08:34.128Z,10.93
2018-10-19T01:11:02.454Z,10.99
2018-10-19T01:13:30.844Z,10.91
2018-10-19T01:15:59.136Z,10.92
2018-10-19T01:18:27.445Z,10.90
2018-10-19T01:20:56.164Z,10.88
2018-10-19T01:23:24.568Z,10.83
2018-10-19T01:25:52.853Z,10.81
2018-10-19T01:28:21.209Z,10.78
2018-10-19T01:30:49.604Z,10.82
2018-10-19T01:33:18.014Z,10.80
2018-10-19T01:35:46.287Z,10.78
2018-10-19T01:38:14.595Z,10.73
2018-10-19T01:40:42.955Z,10.73
2018-10-19T01:43:11.258Z,10.75
2018-10-19T01:45:43.819Z,10.65
2018-10-19T01:48:12.141Z,10.64
2018-10-19T01:50:40.485Z,10.60
2018-10-19T01:53:08.813Z,10.62
2018-10-19T01:55:37.185Z,10.56
2018-10-19T01:58:05.903Z,10.51
2018-10-19T02:00:34.248Z,10.54
2018-10-19T02:03:02.658Z,10.60
2018-10-19T02:05:31.111Z,10.56
2018-10-19T02:07:59.455Z,10.50
2018-10-19T02:10:27.758Z,10.55
2018-10-19T02:12:56.137Z,10.48
2018-10-19T02:15:24.481Z,10.43
2018-10-19T02:17:52.886Z,10.42
2018-10-19T02:20:21.179Z,10.38
2018-10-19T02:22:49.637Z,10.32
2018-10-19T02:25:18.031Z,10.32
2018-10-19T02:27:46.486Z,10.33
2018-10-19T02:30:14.887Z,10.28
2018-10-19T02:32:43.272Z,10.30
2018-10-19T02:35:11.669Z,10.28
2018-10-19T02:37:40.073Z,10.28
2018-10-19T02:40:09.029Z,10.26
2018-10-19T02:42:37.755Z,10.19
2018-10-19T02:45:06.545Z,10.10
2018-10-19T02:47:34.872Z,10.10
2018-10-19T02:50:03.221Z,10.13
2018-10-19T02:52:31.512Z,10.19
2018-10-19T02:54:59.901Z,10.15
2018-10-19T02:57:28.312Z,10.15
2018-10-19T02:59:56.581Z,10.13
2018-10-19T03:02:24.957Z,10.09
2018-10-19T03:04:53.371Z,10.10
2018-10-19T03:07:21.669Z,10.08
2018-10-19T03:09:49.970Z,10.11
2018-10-19T03:12:18.306Z,10.06
2018-10-19T03:14:46.632Z,10.06
2018-10-19T03:17:14.990Z,10.05
2018-10-19T03:19:43.249Z,10.07
2018-10-19T03:22:11.545Z,10.05
2018-10-19T03:24:40.021Z,10.00
2018-10-19T03:27:08.952Z,10.02
2018-10-19T03:29:37.203Z,10.05
2018-10-19T03:32:05.457Z,10.04
2018-10-19T03:34:33.757Z,9.99
2018-10-19T03:37:02.057Z,10.02
2018-10-19T03:39:30.352Z,10.02
2018-10-19T03:41:58.681Z,9.88
2018-10-19T03:44:26.970Z,9.89
2018-10-19T03:46:55.288Z,9.89
2018-10-19T03:49:23.646Z,9.94
2018-10-19T03:51:51.952Z,9.94
2018-10-19T03:54:21.258Z,9.96
2018-10-19T03:56:49.553Z,9.95
2018-10-19T03:59:17.923Z,9.89
2018-10-19T04:01:46.249Z,9.89
2018-10-19T04:04:14.557Z,9.91
2018-10-19T04:06:42.869Z,9.90
2018-10-19T04:09:13.103Z,9.91
2018-10-19T04:11:41.549Z,9.88
2018-10-19T04:14:11.241Z,9.96
2018-10-19T04:16:39.625Z,9.92
2018-10-19T04:19:08.498Z,9.94
2018-10-19T04:21:36.849Z,9.88
2018-10-19T04:24:05.442Z,9.93
2018-10-19T04:26:33.693Z,9.91
2018-10-19T04:29:02.037Z,9.87
2018-10-19T04:31:30.310Z,9.97
2018-10-19T04:33:58.669Z,9.91
2018-10-19T04:36:26.959Z,9.92
2018-10-19T04:38:55.359Z,10.00
2018-10-19T04:41:23.716Z,9.99
2018-10-19T04:43:52.009Z,9.95
2018-10-19T04:46:20.323Z,9.93
2018-10-19T04:48:48.748Z,9.96
2018-10-19T04:51:17.151Z,10.04
2018-10-19T04:53:45.485Z,10.00
2018-10-19T04:56:13.714Z,9.91
2018-10-19T04:58:42.034Z,9.93
2018-10-19T05:01:10.368Z,9.95
2018-10-19T05:03:39.109Z,10.06
2018-10-19T05:06:07.560Z,9.88
2018-10-19T05:08:35.878Z,9.93
2018-10-19T05:11:04.229Z,9.90
2018-10-19T05:13:33.000Z,9.85
2018-10-19T05:16:01.306Z,9.91
2018-10-19T05:18:29.620Z,9.97
2018-10-19T05:20:57.974Z,10.04
2018-10-19T05:23:26.269Z,9.97
2018-10-19T05:25:54.609Z,10.01
2018-10-19T05:28:22.998Z,9.88
2018-10-19T05:30:51.395Z,9.91
2018-10-19T05:33:19.722Z,9.95
2018-10-19T05:35:48.059Z,9.95
2018-10-19T05:38:16.399Z,9.92
2018-10-19T05:40:44.697Z,9.97
2018-10-19T05:43:13.119Z,9.94
2018-10-19T05:45:41.429Z,9.90
2018-10-19T05:48:09.735Z,9.90
2018-10-19T05:50:38.130Z,9.82
2018-10-19T05:53:06.519Z,9.73
2018-10-19T05:55:34.819Z,9.73
2018-10-19T05:58:03.144Z,9.71
2018-10-19T06:00:31.526Z,9.73
2018-10-19T06:02:59.902Z,9.74
2018-10-19T06:05:28.296Z,9.71
2018-10-19T06:07:56.583Z,9.71
2018-10-19T06:10:24.893Z,9.65
2018-10-19T06:12:53.249Z,9.66
2018-10-19T06:15:21.563Z,9.65
2018-10-19T06:17:49.958Z,9.70
2018-10-19T06:20:18.376Z,9.71
2018-10-19T06:22:46.786Z,9.73
2018-10-19T06:25:15.162Z,9.79
2018-10-19T06:27:43.490Z,9.78
2018-10-19T06:30:11.892Z,9.76
2018-10-19T06:32:40.216Z,9.76
2018-10-19T06:35:08.774Z,9.75
2018-10-19T06:37:37.127Z,9.76
2018-10-19T06:40:05.496Z,9.80
2018-10-19T06:42:33.830Z,9.77
2018-10-19T06:45:02.188Z,9.84
2018-10-19T06:47:30.548Z,9.83
2018-10-19T06:49:59.086Z,9.80
2018-10-19T06:52:27.333Z,9.87
2018-10-19T06:54:55.627Z,9.83
2018-10-19T06:57:24.002Z,9.77
2018-10-19T06:59:52.359Z,9.80
2018-10-19T07:02:20.664Z,9.79
2018-10-19T07:04:48.968Z,9.84
2018-10-19T07:07:17.321Z,9.74
2018-10-19T07:09:45.632Z,9.74
2018-10-19T07:12:14.017Z,9.82
2018-10-19T07:14:42.350Z,9.86
2018-10-19T07:17:10.730Z,9.91
2018-10-19T07:19:38.927Z,9.86
2018-10-19T07:22:07.368Z,9.94
2018-10-19T07:24:35.763Z,9.83
2018-10-19T07:27:04.218Z,9.91
2018-10-19T07:29:32.624Z,9.99
2018-10-19T07:32:00.990Z,9.98
2018-10-19T07:34:29.313Z,10.02
2018-10-19T07:36:57.662Z,10.05
2018-10-19T07:39:26.093Z,10.08
2018-10-19T07:41:54.443Z,10.08
2018-10-19T07:44:22.878Z,10.02
2018-10-19T07:46:51.209Z,10.11
2018-10-19T07:49:19.543Z,10.07
2018-10-19T07:51:47.900Z,10.05
2018-10-19T07:54:16.314Z,10.06
2018-10-19T07:56:44.605Z,10.13
2018-10-19T07:59:13.102Z,10.06
2018-10-19T08:01:41.391Z,10.10
2018-10-19T08:04:09.762Z,10.06
2018-10-19T08:06:38.094Z,10.18
2018-10-19T08:09:08.800Z,10.18
2018-10-19T08:11:37.274Z,10.22
2018-10-19T08:14:05.862Z,10.21
2018-10-19T08:16:34.270Z,10.18
2018-10-19T08:19:02.618Z,10.33
2018-10-19T08:21:31.152Z,10.38
2018-10-19T08:23:59.485Z,10.39
2018-10-19T08:26:27.749Z,10.36
2018-10-19T08:28:56.244Z,10.41
2018-10-19T08:31:24.525Z,10.54
2018-10-19T08:33:52.837Z,10.68
2018-10-19T08:36:21.216Z,10.76
2018-10-19T08:38:49.667Z,10.77
2018-10-19T08:41:18.104Z,10.76
2018-10-19T08:43:46.558Z,10.80
2018-10-19T08:46:48.752Z,10.92
2018-10-19T08:49:17.191Z,10.86
2018-10-19T08:51:45.526Z,10.94
2018-10-19T08:54:13.895Z,11.00
2018-10-19T08:56:42.205Z,11.03
2018-10-19T08:59:10.565Z,11.04
2018-10-19T09:01:39.042Z,11.04
2018-10-19T09:04:07.462Z,11.09
2018-10-19T09:06:35.775Z,11.18
2018-10-19T09:09:06.227Z,11.34
2018-10-19T09:11:34.628Z,11.23
2018-10-19T09:14:12.821Z,11.33
2018-10-19T09:16:41.167Z,11.44
2018-10-19T09:19:09.470Z,11.51
2018-10-19T09:21:37.856Z,11.55
2018-10-19T09:24:06.269Z,11.61
2018-10-19T09:26:34.663Z,11.80
2018-10-19T09:29:03.049Z,11.96
2018-10-19T09:31:31.427Z,11.89
2018-10-19T09:33:59.763Z,11.91
2018-10-19T09:36:28.302Z,12.01
2018-10-19T09:38:56.510Z,12.02
2018-10-19T09:41:24.823Z,11.96
2018-10-19T09:43:53.514Z,12.15
2018-10-19T09:46:21.844Z,12.22
2018-10-19T09:48:50.291Z,12.29
2018-10-19T09:51:18.669Z,12.63
2018-10-19T09:53:47.032Z,12.96
2018-10-19T09:56:15.553Z,13.03
2018-10-19T09:58:43.851Z,13.16
2018-10-19T10:01:31.881Z,13.38
2018-10-19T10:04:00.195Z,13.48
2018-10-19T10:06:29.065Z,13.58
2018-10-19T10:08:57.483Z,13.76
2018-10-19T10:11:25.824Z,13.96
2018-10-19T10:13:54.177Z,14.08
2018-10-19T10:16:22.531Z,14.20
2018-10-19T10:18:50.907Z,14.23
2018-10-19T10:21:19.287Z,14.42
2018-10-19T10:23:47.642Z,14.70
2018-10-19T10:26:16.144Z,14.84
2018-10-19T10:28:44.503Z,14.82
2018-10-19T10:31:12.921Z,14.65
2018-10-19T10:33:41.396Z,14.49
2018-10-19T10:36:09.686Z,14.18
2018-10-19T10:38:38.077Z,13.91
2018-10-19T10:41:06.387Z,13.69
2018-10-19T10:43:34.735Z,13.69
2018-10-19T10:46:03.069Z,14.05
2018-10-19T10:48:31.353Z,14.43
2018-10-19T10:50:59.734Z,14.86
2018-10-19T10:53:28.093Z,15.09
2018-10-19T10:55:56.437Z,15.27
2018-10-19T10:58:24.827Z,15.56
2018-10-19T11:00:53.270Z,15.32
2018-10-19T11:03:21.539Z,14.94
2018-10-19T11:05:49.957Z,14.91
2018-10-19T11:08:18.359Z,14.75
2018-10-19T11:10:46.978Z,14.77
2018-10-19T11:13:15.289Z,15.00
2018-10-19T11:15:43.602Z,15.48
2018-10-19T11:18:12.072Z,15.69
2018-10-19T11:20:40.591Z,15.81
2018-10-19T11:23:09.073Z,16.05
2018-10-19T11:25:37.407Z,15.88
2018-10-19T11:28:05.788Z,15.68
2018-10-19T11:30:34.302Z,15.62
2018-10-19T11:33:02.824Z,15.56
2018-10-19T11:35:31.576Z,15.44
2018-10-19T11:38:00.704Z,15.22
2018-10-19T11:40:37.047Z,14.93
2018-10-19T11:43:06.414Z,14.77
2018-10-19T11:45:35.555Z,14.63
2018-10-19T11:48:03.870Z,14.57
2018-10-19T11:50:32.317Z,14.45
2018-10-19T11:53:00.673Z,14.47
2018-10-19T11:55:28.958Z,14.34
2018-10-19T11:57:57.360Z,14.38
2018-10-19T12:00:25.678Z,14.67
2018-10-19T12:02:54.004Z,15.00
2018-10-19T12:05:22.572Z,15.37
2018-10-19T12:07:50.867Z,15.64
2018-10-19T12:10:19.141Z,15.98
2018-10-19T12:12:47.499Z,16.32
2018-10-19T12:15:16.924Z,16.45
2018-10-19T12:17:45.569Z,16.45
2018-10-19T12:20:15.317Z,16.38
2018-10-19T12:22:43.654Z,16.44
2018-10-19T12:25:12.992Z,16.50
2018-10-19T12:27:41.707Z,16.61
2018-10-19T12:30:10.979Z,16.72
2018-10-19T12:32:39.563Z,16.86
2018-10-19T12:35:09.469Z,16.78
2018-10-19T12:37:37.943Z,16.82
2018-10-19T12:40:07.203Z,17.01
2018-10-19T12:42:35.868Z,17.24
2018-10-19T12:45:04.357Z,17.25
2018-10-19T12:47:38.989Z,17.36
2018-10-19T12:50:08.021Z,17.15
2018-10-19T12:52:36.512Z,16.93
2018-10-19T12:55:05.727Z,16.51
2018-10-19T12:57:34.089Z,16.09
2018-10-19T13:00:02.461Z,15.78
2018-10-19T13:02:30.872Z,15.57
2018-10-19T13:04:59.385Z,15.34
2018-10-19T13:07:27.692Z,15.19
2018-10-19T13:09:56.056Z,15.20
2018-10-19T13:12:24.346Z,15.33
2018-10-19T13:14:52.678Z,15.19
2018-10-19T13:17:21.005Z,15.05
2018-10-19T13:19:49.381Z,14.83
2018-10-19T13:22:17.733Z,14.74
2018-10-19T13:24:46.141Z,14.74
2018-10-19T13:27:14.529Z,14.77
2018-10-19T13:29:42.776Z,14.69
2018-10-19T13:32:11.140Z,14.75
2018-10-19T13:34:39.441Z,14.55
2018-10-19T13:37:07.722Z,14.64
2018-10-19T13:39:36.136Z,14.66
2018-10-19T13:42:04.561Z,14.66
2018-10-19T13:44:32.936Z,14.71
2018-10-19T13:47:01.327Z,14.69
2018-10-19T13:49:29.691Z,14.60
2018-10-19T13:51:58.157Z,14.50
2018-10-19T13:54:26.523Z,14.39
2018-10-19T13:56:54.885Z,14.43
2018-10-19T13:59:23.356Z,14.45
2018-10-19T14:01:51.799Z,14.44
2018-10-19T14:04:20.149Z,14.47
2018-10-19T14:06:48.460Z,14.42
2018-10-19T14:09:17.101Z,14.47
2018-10-19T14:11:45.396Z,14.43
2018-10-19T14:14:13.864Z,14.34
2018-10-19T14:16:42.177Z,14.34
2018-10-19T14:19:10.736Z,14.27
2018-10-19T14:21:39.029Z,14.27
2018-10-19T14:24:07.477Z,14.32
2018-10-19T14:26:35.822Z,14.24
2018-10-19T14:29:04.218Z,14.24
2018-10-19T14:31:32.590Z,14.26
2018-10-19T14:34:01.001Z,14.31
2018-10-19T14:36:29.355Z,14.26
2018-10-19T14:38:57.786Z,14.17
2018-10-19T14:41:26.209Z,14.15
2018-10-19T14:43:54.591Z,14.15
2018-10-19T14:46:22.960Z,14.13
2018-10-19T14:48:51.295Z,14.21
2018-10-19T14:51:19.710Z,14.21
2018-10-19T14:53:48.125Z,14.13
2018-10-19T14:56:16.582Z,14.17
2018-10-19T14:58:44.962Z,14.13
2018-10-19T15:01:13.596Z,14.14
2018-10-19T15:03:41.897Z,14.16
2018-10-19T15:06:10.469Z,14.10
2018-10-19T15:08:39.015Z,14.10
2018-10-19T15:11:07.389Z,14.05
2018-10-19T15:13:35.693Z,14.03
2018-10-19T15:16:03.982Z,14.00
2018-10-19T15:18:32.367Z,14.01
2018-10-19T15:21:00.747Z,14.02
2018-10-19T15:23:29.068Z,13.98
2018-10-19T15:25:57.398Z,14.01
2018-10-19T15:28:25.835Z,13.96
2018-10-19T15:30:54.188Z,13.97
2018-10-19T15:33:22.592Z,13.92
2018-10-19T15:35:50.995Z,13.91
2018-10-19T15:38:19.361Z,13.91
2018-10-19T15:40:47.726Z,13.91
2018-10-19T15:43:16.080Z,13.84
2018-10-19T15:45:44.406Z,13.81
2018-10-19T15:48:12.987Z,13.79
2018-10-19T15:50:41.368Z,13.73
2018-10-19T15:53:09.730Z,13.70
2018-10-19T15:55:38.093Z,13.75
2018-10-19T15:58:06.659Z,13.69
2018-10-19T16:00:35.193Z,13.75
2018-10-19T16:03:03.593Z,13.73
2018-10-19T16:05:31.923Z,13.69
2018-10-19T16:08:00.330Z,13.67
2018-10-19T16:10:28.780Z,13.66
2018-10-19T16:12:57.186Z,13.67
2018-10-19T16:15:25.492Z,13.66
2018-10-19T16:17:53.818Z,13.67
2018-10-19T16:20:22.196Z,13.64
2018-10-19T16:22:50.558Z,13.61
2018-10-19T16:25:18.949Z,13.58
2018-10-19T16:27:47.364Z,13.53
2018-10-19T16:30:15.776Z,13.53
2018-10-19T16:32:44.143Z,13.51
2018-10-19T16:35:12.504Z,13.48
2018-10-19T16:37:40.940Z,13.50
2018-10-19T16:40:09.317Z,13.45
2018-10-19T16:42:37.813Z,13.45
2018-10-19T16:45:07.389Z,13.38
2018-10-19T16:47:35.704Z,13.32
2018-10-19T16:50:04.210Z,13.33
2018-10-19T16:52:32.642Z,13.34
2018-10-19T16:55:00.928Z,13.33
2018-10-19T16:57:29.310Z,13.32
2018-10-19T16:59:57.766Z,13.29
2018-10-19T17:02:26.254Z,13.32
2018-10-19T17:04:54.724Z,13.28
2018-10-19T17:07:23.302Z,13.28
2018-10-19T17:09:51.873Z,13.33
2018-10-19T17:12:20.544Z,13.32
2018-10-19T17:14:49.150Z,13.30
2018-10-19T17:17:17.720Z,13.23
2018-10-19T17:19:46.410Z,13.23
2018-10-19T17:22:14.866Z,13.23
2018-10-19T17:24:43.498Z,13.21
2018-10-19T17:27:12.124Z,13.22
2018-10-19T17:29:40.569Z,13.14
2018-10-19T17:32:09.585Z,13.09
2018-10-19T17:34:38.176Z,13.12
2018-10-19T17:37:06.769Z,13.13
2018-10-19T17:39:35.251Z,13.06
2018-10-19T17:42:03.856Z,13.03
2018-10-19T17:44:38.612Z,13.05
2018-10-19T17:47:07.189Z,12.99
2018-10-19T17:49:35.744Z,13.00
2018-10-19T17:52:04.281Z,12.99
2018-10-19T17:54:32.905Z,12.99
2018-10-19T17:57:01.370Z,12.97
2018-10-19T17:59:30.138Z,12.92
2018-10-19T18:01:58.887Z,12.91
2018-10-19T18:04:27.309Z,12.87
2018-10-19T18:06:56.118Z,12.95
2018-10-19T18:09:24.776Z,12.92
2018-10-19T18:11:54.201Z,12.85
2018-10-19T18:14:22.756Z,12.82
2018-10-19T18:16:51.162Z,12.79
2018-10-19T18:19:19.547Z,12.78
2018-10-19T18:21:48.095Z,12.74
2018-10-19T18:24:16.544Z,12.78
2018-10-19T18:26:45.040Z,12.71
2018-10-19T18:29:13.427Z,12.66
2018-10-19T18:31:41.776Z,12.70
2018-10-19T18:34:10.210Z,12.68
2018-10-19T18:36:39.066Z,12.65
2018-10-19T18:39:10.855Z,12.66
2018-10-19T18:41:39.356Z,12.67
2018-10-19T18:44:08.560Z,12.62
2018-10-19T18:46:37.283Z,12.57
2018-10-19T18:49:06.297Z,12.55
2018-10-19T18:51:34.649Z,12.56
2018-10-19T18:54:03.294Z,12.58
2018-10-19T18:56:32.204Z,12.53
2018-10-19T18:59:00.793Z,12.50
2018-10-19T19:01:29.320Z,12.49
2018-10-19T19:03:57.788Z,12.40
2018-10-19T19:06:26.343Z,12.42
2018-10-19T19:08:54.749Z,12.50
2018-10-19T19:11:23.398Z,12.48
2018-10-19T19:13:51.835Z,12.40
2018-10-19T19:16:25.695Z,12.44
2018-10-19T19:18:54.096Z,12.39
2018-10-19T19:21:22.543Z,12.45
2018-10-19T19:23:56.246Z,12.39
2018-10-19T19:26:25.914Z,12.38
2018-10-19T19:28:54.564Z,12.34
2018-10-19T19:31:22.925Z,12.33
2018-10-19T19:34:54.455Z,12.31
2018-10-19T19:37:22.902Z,12.27
2018-10-19T19:39:51.685Z,12.29
2018-10-19T19:42:25.312Z,12.26
2018-10-19T19:44:53.973Z,12.25
2018-10-19T19:47:27.799Z,12.21
2018-10-19T19:50:00.435Z,12.21
2018-10-19T19:52:28.897Z,12.20
2018-10-19T19:54:57.485Z,12.26
2018-10-19T19:57:26.496Z,12.25
2018-10-19T19:59:55.511Z,12.22
2018-10-19T20:02:24.144Z,12.29
2018-10-19T20:04:52.620Z,12.30
2018-10-19T20:07:21.222Z,12.22
2018-10-19T20:09:49.860Z,12.19
2018-10-19T20:12:18.424Z,12.21
2018-10-19T20:14:47.040Z,12.20
2018-10-19T20:17:15.816Z,12.17
2018-10-19T20:19:44.590Z,12.18
2018-10-19T20:22:13.096Z,12.18
2018-10-19T20:24:41.533Z,12.15
2018-10-19T20:27:09.920Z,12.14
2018-10-19T20:29:38.418Z,12.17
2018-10-19T20:32:06.818Z,12.13
2018-10-19T20:34:35.132Z,12.05
2018-10-19T20:37:03.623Z,12.01
2018-10-19T20:39:32.049Z,11.94
2018-10-19T20:42:00.622Z,11.93
2018-10-19T20:44:29.020Z,11.94
2018-10-19T20:46:57.485Z,11.91
2018-10-19T20:49:25.827Z,11.92
2018-10-19T20:51:54.290Z,11.96
2018-10-19T20:54:22.819Z,11.97
2018-10-19T20:56:51.186Z,11.94
2018-10-19T20:59:19.597Z,11.92
2018-10-19T21:01:48.066Z,11.99
2018-10-19T21:04:16.473Z,11.97
2018-10-19T21:06:44.834Z,11.96
2018-10-19T21:09:13.693Z,11.99
2018-10-19T21:11:42.172Z,12.02
2018-10-19T21:14:10.792Z,12.07
2018-10-19T21:16:39.195Z,12.08
2018-10-19T21:19:07.583Z,12.02
2018-10-19T21:21:36.053Z,12.01
2018-10-19T21:24:04.387Z,11.97
2018-10-19T21:26:32.889Z,11.93
2018-10-19T21:29:01.302Z,12.01
2018-10-19T21:31:29.743Z,12.00
2018-10-19T21:33:58.094Z,12.01
2018-10-19T21:36:26.489Z,11.97
2018-10-19T21:38:54.977Z,11.91
2018-10-19T21:41:23.343Z,11.91
2018-10-19T21:43:51.857Z,11.91
2018-10-19T21:46:20.167Z,11.87
2018-10-19T21:48:48.499Z,11.82
2018-10-19T21:51:16.980Z,11.76
2018-10-19T21:53:45.371Z,11.75
2018-10-19T21:56:13.717Z,11.71
2018-10-19T21:58:42.107Z,11.72
2018-10-19T22:01:10.380Z,11.75
2018-10-19T22:03:39.724Z,11.70
2018-10-19T22:06:08.782Z,11.77
2018-10-19T22:08:37.235Z,11.76
2018-10-19T22:11:05.826Z,11.68
2018-10-19T22:13:34.200Z,11.70
2018-10-19T22:16:02.523Z,11.72
2018-10-19T22:18:30.852Z,11.68
2018-10-19T22:20:59.245Z,11.61
2018-10-19T22:23:27.589Z,11.55
2018-10-19T22:25:56.805Z,11.47
2018-10-19T22:28:25.216Z,11.43
2018-10-19T22:30:54.860Z,11.39
2018-10-19T22:33:23.288Z,11.37
2018-10-19T22:35:51.662Z,11.38
2018-10-19T22:38:20.000Z,11.34
2018-10-19T22:40:48.432Z,11.36
2018-10-19T22:43:16.920Z,11.35
2018-10-19T22:45:45.163Z,11.34
2018-10-19T22:48:13.552Z,11.36
2018-10-19T22:50:42.044Z,11.32
2018-10-19T22:53:10.521Z,11.32
2018-10-19T22:55:38.794Z,11.35
2018-10-19T22:58:07.184Z,11.33
2018-10-19T23:00:35.552Z,11.29
2018-10-19T23:03:03.846Z,11.25
2018-10-19T23:05:32.246Z,11.23
2018-10-19T23:08:00.561Z,11.26
2018-10-19T23:10:28.992Z,11.20
2018-10-19T23:12:57.374Z,11.18
2018-10-19T23:15:25.705Z,11.18
2018-10-19T23:17:54.236Z,11.07
2018-10-19T23:20:22.592Z,11.05
2018-10-19T23:22:50.908Z,11.04
2018-10-19T23:25:19.277Z,11.06
2018-10-19T23:27:47.822Z,11.08
2018-10-19T23:30:16.223Z,11.09
2018-10-19T23:32:44.604Z,11.16
2018-10-19T23:35:13.042Z,11.19
2018-10-19T23:37:41.388Z,11.25
2018-10-19T23:40:09.866Z,11.19
2018-10-19T23:42:38.195Z,11.22
2018-10-19T23:45:07.563Z,11.22
2018-10-19T23:47:35.855Z,11.17
2018-10-19T23:50:04.280Z,11.16
2018-10-19T23:52:32.718Z,11.15
2018-10-19T23:55:01.245Z,11.20
2018-10-19T23:57:29.631Z,11.29
2018-10-19T23:59:57.948Z,11.32
